Time;durP1;ratioP1;P1;durP2;ratioP2;P2;SDS_P1;SDS_P2;PMS_P1;PMS_P2;Temp;Humidity;BMP_temperature;BMP_pressure;BME280_temperature;BME280_humidity;BME280_pressure;Samples;Min_cycle;Max_cycle;Signal;HPM_P1;HPM_P2
2022/09/07 00:02:10;;;;;;;;;;;18.10;99.90;;;;;;5074547;28;20015;-72
2022/09/07 00:04:41;;;;;;;;;;;18.10;99.90;;;;;;5076067;28;20421;-72
2022/09/07 00:07:13;;;;;;;;;;;18.10;99.90;;;;;;5089149;28;19931;-72
2022/09/07 00:09:45;;;;;;;;;;;18.00;99.90;;;;;;5064320;28;19924;-72
2022/09/07 00:12:16;;;;;;;;;;;18.00;99.90;;;;;;5081312;28;19931;-72
2022/09/07 00:14:48;;;;;;;;;;;18.00;99.90;;;;;;5093354;28;20448;-72
2022/09/07 00:17:19;;;;;;;;;;;17.90;99.90;;;;;;5082448;28;19924;-73
2022/09/07 00:19:51;;;;;;;;;;;17.90;99.90;;;;;;5087128;28;19932;-72
2022/09/07 00:22:23;;;;;;;;;;;17.80;99.90;;;;;;5069737;28;20275;-72
2022/09/07 00:24:54;;;;;;;;;;;17.80;99.90;;;;;;5058546;28;19924;-72
2022/09/07 00:27:26;;;;;;;;;;;17.80;99.90;;;;;;5083617;28;19976;-72
2022/09/07 00:29:58;;;;;;;;;;;17.80;99.90;;;;;;5073315;28;20405;-71
2022/09/07 00:32:29;;;;;;;;;;;17.90;99.90;;;;;;5073896;28;19925;-72
2022/09/07 00:35:01;;;;;;;;;;;17.90;99.90;;;;;;5061144;28;19929;-72
2022/09/07 00:37:33;;;;;;;;;;;18.00;99.90;;;;;;5082565;28;19924;-72
2022/09/07 00:40:04;;;;;;;;;;;18.00;99.90;;;;;;5065263;28;19928;-72
2022/09/07 00:42:36;;;;;;;;;;;18.00;99.90;;;;;;5061668;28;19928;-71
2022/09/07 00:45:12;;;;;;;;;;;18.00;99.90;;;;;;5061652;28;19932;-72
2022/09/07 00:47:47;;;;;;;;;;;18.00;99.90;;;;;;5061909;28;19924;-72
2022/09/07 00:50:26;;;;;;;;;;;18.00;99.90;;;;;;5069564;28;19928;-72
2022/09/07 00:53:01;;;;;;;;;;;18.00;99.90;;;;;;5076994;28;19928;-72
2022/09/07 00:55:35;;;;;;;;;;;17.90;99.90;;;;;;5081534;28;19946;-72
2022/09/07 00:58:07;;;;;;;;;;;18.00;99.90;;;;;;5081868;28;19933;-72
2022/09/07 01:00:39;;;;;;;;;;;18.00;99.90;;;;;;5076878;28;20306;-72
2022/09/07 01:03:10;;;;;;;;;;;18.00;99.90;;;;;;5072507;28;19954;-72
2022/09/07 01:05:45;;;;;;;;;;;18.00;99.90;;;;;;5072256;28;19924;-71
2022/09/07 01:08:16;;;;;;;;;;;18.00;99.90;;;;;;5076602;28;19925;-72
2022/09/07 01:10:48;;;;;;;;;;;18.10;99.90;;;;;;5072787;28;19924;-72
2022/09/07 01:13:21;;;;;;;;;;;18.10;99.90;;;;;;5058567;28;20379;-72
2022/09/07 01:16:11;;;;;;;;;;;18.00;99.90;;;;;;5060196;28;20030;-72
2022/09/07 01:18:46;;;;;;;;;;;18.00;99.90;;;;;;5074009;28;19924;-72
2022/09/07 01:21:30;;;;;;;;;;;18.00;99.90;;;;;;5072632;28;19924;-71
2022/09/07 01:24:01;;;;;;;;;;;17.90;99.90;;;;;;5058933;28;19939;-72
2022/09/07 01:26:51;;;;;;;;;;;17.90;99.90;;;;;;5082795;28;19928;-72
2022/09/07 01:29:30;;;;;;;;;;;17.90;99.90;;;;;;5083144;28;19980;-72
2022/09/07 01:32:04;;;;;;;;;;;17.80;99.90;;;;;;5077970;28;20119;-72
2022/09/07 01:34:36;;;;;;;;;;;17.90;99.90;;;;;;5083576;28;20516;-72
2022/09/07 01:37:28;;;;;;;;;;;17.90;99.90;;;;;;5075863;28;19924;-72
2022/09/07 01:40:07;;;;;;;;;;;17.90;99.90;;;;;;5088487;28;19930;-72
2022/09/07 01:42:50;;;;;;;;;;;17.90;99.90;;;;;;5082841;28;19930;-72
2022/09/07 01:45:24;;;;;;;;;;;17.90;99.90;;;;;;5073381;28;19932;-72
2022/09/07 01:47:57;;;;;;;;;;;17.80;99.90;;;;;;5076755;28;19925;-72
2022/09/07 01:50:36;;;;;;;;;;;17.90;99.90;;;;;;5076495;28;19958;-72
2022/09/07 01:53:16;;;;;;;;;;;17.80;99.90;;;;;;5084841;28;19925;-72
2022/09/07 01:55:51;;;;;;;;;;;17.70;99.90;;;;;;5087784;28;19924;-72
2022/09/07 01:58:35;;;;;;;;;;;17.70;99.90;;;;;;5034885;28;19928;-71
2022/09/07 02:01:29;;;;;;;;;;;17.70;99.90;;;;;;5071828;28;19928;-72
2022/09/07 02:04:10;;;;;;;;;;;17.70;99.90;;;;;;5046377;28;20371;-72
2022/09/07 02:06:49;;;;;;;;;;;17.70;99.90;;;;;;5053943;28;20205;-71
2022/09/07 02:09:40;;;;;;;;;;;17.70;99.90;;;;;;5071768;28;19929;-72
2022/09/07 02:12:30;;;;;;;;;;;17.80;99.90;;;;;;5071730;28;19939;-71
2022/09/07 02:15:05;;;;;;;;;;;17.70;99.90;;;;;;5063008;28;20387;-72
2022/09/07 02:17:40;;;;;;;;;;;17.80;99.90;;;;;;5054029;28;19924;-72
2022/09/07 02:20:14;;;;;;;;;;;17.70;99.90;;;;;;5041943;28;19931;-72
2022/09/07 02:22:49;;;;;;;;;;;17.70;99.90;;;;;;5060750;28;19962;-72
2022/09/07 02:25:24;;;;;;;;;;;17.80;99.90;;;;;;5050365;28;19964;-72
2022/09/07 02:27:58;;;;;;;;;;;17.80;99.90;;;;;;5066060;28;19929;-72
2022/09/07 02:30:29;;;;;;;;;;;17.80;99.90;;;;;;5071870;28;19928;-72
2022/09/07 02:33:01;;;;;;;;;;;17.80;99.90;;;;;;5041831;28;19930;-72
2022/09/07 02:35:33;;;;;;;;;;;17.80;99.90;;;;;;5091602;28;19930;-72
2022/09/07 02:38:05;;;;;;;;;;;17.80;99.90;;;;;;5089609;28;19930;-72
2022/09/07 02:40:37;;;;;;;;;;;17.80;99.90;;;;;;5091099;28;19931;-72
2022/09/07 02:43:10;;;;;;;;;;;17.80;99.90;;;;;;5075729;28;19928;-73
2022/09/07 02:45:41;;;;;;;;;;;17.70;99.90;;;;;;5091714;28;19930;-72
2022/09/07 02:48:20;;;;;;;;;;;17.70;99.90;;;;;;5080368;28;19925;-72
2022/09/07 02:50:57;;;;;;;;;;;17.70;99.90;;;;;;5040405;28;19924;-73
2022/09/07 02:53:29;;;;;;;;;;;17.70;99.90;;;;;;5079058;28;20510;-72
2022/09/07 02:56:05;;;;;;;;;;;17.70;99.90;;;;;;5075384;28;19929;-72
2022/09/07 02:58:39;;;;;;;;;;;17.70;99.90;;;;;;5075628;28;19947;-72
2022/09/07 03:01:29;;;;;;;;;;;17.70;99.90;;;;;;5079019;28;19931;-72
2022/09/07 03:04:06;;;;;;;;;;;17.70;99.90;;;;;;5068130;28;19928;-72
2022/09/07 03:06:40;;;;;;;;;;;17.70;99.90;;;;;;5054446;28;19943;-72
2022/09/07 03:09:17;;;;;;;;;;;17.70;99.90;;;;;;5076408;28;19929;-72
2022/09/07 03:11:49;;;;;;;;;;;17.70;99.90;;;;;;5053800;28;19931;-72
2022/09/07 03:14:22;;;;;;;;;;;17.70;99.90;;;;;;5064410;28;19928;-72
2022/09/07 03:16:55;;;;;;;;;;;17.70;99.90;;;;;;5063664;28;19929;-72
2022/09/07 03:19:26;;;;;;;;;;;17.60;99.90;;;;;;5075351;28;20011;-72
2022/09/07 03:21:58;;;;;;;;;;;17.50;99.90;;;;;;5068592;28;20286;-73
2022/09/07 03:24:29;;;;;;;;;;;17.50;99.90;;;;;;5085136;28;19924;-72
2022/09/07 03:27:01;;;;;;;;;;;17.50;99.90;;;;;;5082136;28;19924;-72
2022/09/07 03:29:33;;;;;;;;;;;17.50;99.90;;;;;;5075505;28;20015;-72
2022/09/07 03:32:04;;;;;;;;;;;17.50;99.90;;;;;;5075356;28;19925;-72
2022/09/07 03:34:36;;;;;;;;;;;17.60;99.90;;;;;;5074144;28;19928;-72
2022/09/07 03:37:08;;;;;;;;;;;17.50;99.90;;;;;;5074603;28;19928;-72
2022/09/07 03:39:39;;;;;;;;;;;17.60;99.90;;;;;;5086641;28;19924;-72
2022/09/07 03:42:11;;;;;;;;;;;17.60;99.90;;;;;;5062873;28;19977;-73
2022/09/07 03:44:43;;;;;;;;;;;17.60;99.90;;;;;;5086147;28;19928;-72
2022/09/07 03:47:15;;;;;;;;;;;17.60;99.90;;;;;;5080060;28;19924;-72
2022/09/07 03:49:47;;;;;;;;;;;17.60;99.90;;;;;;5077252;28;19928;-72
2022/09/07 03:52:19;;;;;;;;;;;17.60;99.90;;;;;;5067264;28;19924;-72
2022/09/07 03:54:51;;;;;;;;;;;17.60;99.90;;;;;;5084508;28;19924;-72
2022/09/07 03:57:22;;;;;;;;;;;17.70;99.90;;;;;;5073489;28;19974;-72
2022/09/07 03:59:54;;;;;;;;;;;17.70;99.90;;;;;;5064174;28;20390;-72
2022/09/07 04:02:25;;;;;;;;;;;17.70;99.90;;;;;;5095020;28;19930;-72
2022/09/07 04:04:57;;;;;;;;;;;17.70;99.90;;;;;;5086778;28;19928;-72
2022/09/07 04:07:29;;;;;;;;;;;17.70;99.90;;;;;;5078758;28;19924;-73
2022/09/07 04:10:01;;;;;;;;;;;17.70;99.90;;;;;;5077321;28;20379;-72
2022/09/07 04:12:32;;;;;;;;;;;17.70;99.90;;;;;;5063112;28;19989;-72
2022/09/07 04:15:04;;;;;;;;;;;17.70;99.90;;;;;;5075370;28;19930;-72
2022/09/07 04:17:36;;;;;;;;;;;17.70;99.90;;;;;;5094611;28;19924;-73
2022/09/07 04:20:08;;;;;;;;;;;17.60;99.90;;;;;;5090598;28;20292;-72
2022/09/07 04:22:39;;;;;;;;;;;17.60;99.90;;;;;;5068257;28;19924;-72
2022/09/07 04:25:11;;;;;;;;;;;17.70;99.90;;;;;;5078166;28;19924;-72
2022/09/07 04:27:43;;;;;;;;;;;17.60;99.90;;;;;;5061143;28;19938;-72
2022/09/07 04:30:14;;;;;;;;;;;17.70;99.90;;;;;;5088462;28;19924;-72
2022/09/07 04:32:46;;;;;;;;;;;17.70;99.90;;;;;;5074216;28;19929;-72
2022/09/07 04:35:18;;;;;;;;;;;17.70;99.90;;;;;;5062774;28;19924;-72
2022/09/07 04:37:49;;;;;;;;;;;17.70;99.90;;;;;;5064726;28;19925;-72
2022/09/07 04:40:21;;;;;;;;;;;17.70;99.90;;;;;;5083757;28;19931;-73
2022/09/07 04:42:53;;;;;;;;;;;17.70;99.90;;;;;;5056942;28;19928;-72
2022/09/07 04:45:25;;;;;;;;;;;17.70;99.90;;;;;;5080356;28;19929;-73
2022/09/07 04:47:56;;;;;;;;;;;17.70;99.90;;;;;;5053207;28;19924;-73
2022/09/07 04:50:28;;;;;;;;;;;17.70;99.90;;;;;;5039057;28;19931;-73
2022/09/07 04:52:59;;;;;;;;;;;17.60;99.90;;;;;;5081599;28;20405;-73
2022/09/07 04:55:31;;;;;;;;;;;17.60;99.90;;;;;;5076968;28;20298;-73
2022/09/07 04:58:03;;;;;;;;;;;17.60;99.90;;;;;;5073683;28;19929;-74
2022/09/07 05:00:36;;;;;;;;;;;17.60;99.90;;;;;;5061622;28;20717;-73
2022/09/07 05:03:08;;;;;;;;;;;17.50;99.90;;;;;;5083411;28;20405;-73
2022/09/07 05:05:39;;;;;;;;;;;17.50;99.90;;;;;;5073255;28;19946;-74
2022/09/07 05:08:11;;;;;;;;;;;17.50;99.90;;;;;;5081635;28;19932;-73
2022/09/07 05:11:01;;;;;;;;;;;17.50;99.90;;;;;;5067683;28;19932;-73
2022/09/07 05:13:33;;;;;;;;;;;17.40;99.90;;;;;;5081974;28;19928;-74
2022/09/07 05:16:09;;;;;;;;;;;17.40;99.90;;;;;;5078523;28;19931;-73
2022/09/07 05:18:41;;;;;;;;;;;17.30;99.90;;;;;;5076991;28;19990;-73
2022/09/07 05:21:14;;;;;;;;;;;17.40;99.90;;;;;;5072684;28;19928;-73
2022/09/07 05:23:48;;;;;;;;;;;17.40;99.90;;;;;;5063897;28;19924;-73
2022/09/07 05:26:21;;;;;;;;;;;17.40;99.90;;;;;;5066986;28;19925;-72
2022/09/07 05:28:47;;;;;;;;;;;17.40;99.90;;;;;;5051858;28;19931;-74
2022/09/07 05:31:21;;;;;;;;;;;17.40;99.90;;;;;;5066695;28;19924;-72
2022/09/07 05:33:53;;;;;;;;;;;17.40;99.90;;;;;;5079781;28;20361;-73
2022/09/07 05:36:26;;;;;;;;;;;17.40;99.90;;;;;;5072483;28;19924;-73
2022/09/07 05:38:58;;;;;;;;;;;17.50;99.90;;;;;;5056361;28;19928;-73
2022/09/07 05:41:30;;;;;;;;;;;17.40;99.90;;;;;;5076262;28;19954;-72
2022/09/07 05:44:02;;;;;;;;;;;17.50;99.90;;;;;;5072610;28;19924;-73
2022/09/07 05:46:34;;;;;;;;;;;17.50;99.90;;;;;;5072790;28;19924;-73
2022/09/07 05:49:06;;;;;;;;;;;17.50;99.90;;;;;;5058486;28;20290;-73
2022/09/07 05:51:38;;;;;;;;;;;17.50;99.90;;;;;;5071442;28;19924;-72
2022/09/07 05:54:10;;;;;;;;;;;17.50;99.90;;;;;;5085173;28;19928;-73
2022/09/07 05:56:42;;;;;;;;;;;17.50;99.90;;;;;;5077722;28;19924;-73
2022/09/07 05:59:14;;;;;;;;;;;17.50;99.90;;;;;;5073737;28;20407;-73
2022/09/07 06:01:45;;;;;;;;;;;17.50;99.90;;;;;;5074809;28;19970;-72
2022/09/07 06:04:17;;;;;;;;;;;17.40;99.90;;;;;;5083550;28;19924;-72
2022/09/07 06:06:49;;;;;;;;;;;17.40;99.90;;;;;;5068716;28;20387;-73
2022/09/07 06:09:20;;;;;;;;;;;17.40;99.90;;;;;;5066012;28;20470;-72
2022/09/07 06:11:52;;;;;;;;;;;17.40;99.90;;;;;;5069984;28;19930;-73
2022/09/07 06:14:24;;;;;;;;;;;17.30;99.90;;;;;;5083538;28;19924;-72
2022/09/07 06:16:55;;;;;;;;;;;17.30;99.90;;;;;;5055057;28;19978;-72
2022/09/07 06:19:27;;;;;;;;;;;17.30;99.90;;;;;;5072185;28;19966;-73
2022/09/07 06:21:59;;;;;;;;;;;17.40;99.90;;;;;;5081671;28;19959;-73
2022/09/07 06:24:30;;;;;;;;;;;17.40;99.90;;;;;;5078094;28;19924;-72
2022/09/07 06:27:03;;;;;;;;;;;17.50;99.90;;;;;;5058760;28;20272;-72
2022/09/07 06:29:35;;;;;;;;;;;17.60;99.90;;;;;;5072832;28;19952;-72
2022/09/07 06:32:06;;;;;;;;;;;17.60;99.90;;;;;;5072264;28;19924;-72
2022/09/07 06:34:38;;;;;;;;;;;17.70;99.90;;;;;;5072082;28;20357;-72
2022/09/07 06:37:10;;;;;;;;;;;17.70;99.90;;;;;;5050841;28;20364;-73
2022/09/07 06:39:42;;;;;;;;;;;17.70;99.90;;;;;;5071914;28;19924;-72
2022/09/07 06:42:13;;;;;;;;;;;17.80;99.90;;;;;;5072299;28;19951;-73
2022/09/07 06:44:50;;;;;;;;;;;17.90;99.90;;;;;;5068791;28;19925;-72
2022/09/07 06:47:22;;;;;;;;;;;18.00;99.90;;;;;;5035360;28;19967;-73
2022/09/07 06:49:53;;;;;;;;;;;18.10;99.90;;;;;;5052165;28;19974;-72
2022/09/07 06:52:26;;;;;;;;;;;18.10;99.90;;;;;;5052397;28;20546;-72
2022/09/07 06:54:57;;;;;;;;;;;18.20;99.90;;;;;;5034734;28;19928;-73
2022/09/07 06:57:29;;;;;;;;;;;18.30;99.90;;;;;;5034459;28;19929;-72
2022/09/07 07:00:00;;;;;;;;;;;18.40;99.90;;;;;;5035096;28;19924;-72
2022/09/07 07:02:32;;;;;;;;;;;18.60;99.90;;;;;;5052342;28;20012;-73
2022/09/07 07:05:04;;;;;;;;;;;18.70;99.90;;;;;;5069991;28;19958;-72
2022/09/07 07:07:36;;;;;;;;;;;18.80;99.90;;;;;;5083947;28;19924;-72
2022/09/07 07:10:07;;;;;;;;;;;18.90;99.90;;;;;;5071002;28;19959;-72
2022/09/07 07:12:39;;;;;;;;;;;19.00;99.90;;;;;;5092429;28;19924;-74
2022/09/07 07:15:05;;;;;;;;;;;19.10;99.90;;;;;;5073659;28;20011;-72
2022/09/07 07:17:37;;;;;;;;;;;19.20;99.90;;;;;;5081844;28;20391;-72
2022/09/07 07:20:08;;;;;;;;;;;19.20;99.90;;;;;;5067355;28;20429;-73
2022/09/07 07:22:40;;;;;;;;;;;19.20;99.90;;;;;;5084247;28;20425;-73
2022/09/07 07:25:07;;;;;;;;;;;19.10;99.90;;;;;;5083300;28;20406;-72
2022/09/07 07:27:39;;;;;;;;;;;19.20;99.90;;;;;;5046065;28;19931;-72
2022/09/07 07:30:11;;;;;;;;;;;19.40;99.90;;;;;;5075550;28;20377;-73
2022/09/07 07:32:43;;;;;;;;;;;19.40;99.90;;;;;;5074847;28;20333;-73
2022/09/07 07:35:15;;;;;;;;;;;19.50;99.90;;;;;;5081969;28;19938;-72
2022/09/07 07:37:47;;;;;;;;;;;19.50;99.90;;;;;;5075293;28;19933;-72
2022/09/07 07:40:18;;;;;;;;;;;19.60;99.90;;;;;;5058013;28;19932;-72
2022/09/07 07:42:50;;;;;;;;;;;19.60;99.90;;;;;;5075403;28;19947;-72
2022/09/07 07:45:22;;;;;;;;;;;19.60;99.90;;;;;;5054975;28;19929;-72
2022/09/07 07:47:54;;;;;;;;;;;19.60;99.90;;;;;;5075076;28;19929;-72
2022/09/07 07:50:25;;;;;;;;;;;19.60;99.90;;;;;;5063413;28;19928;-71
2022/09/07 07:52:57;;;;;;;;;;;19.60;99.90;;;;;;5055960;28;19994;-73
2022/09/07 07:55:29;;;;;;;;;;;19.60;99.90;;;;;;5041624;28;19986;-73
2022/09/07 07:58:01;;;;;;;;;;;19.60;99.90;;;;;;5080628;28;19928;-73
2022/09/07 08:00:33;;;;;;;;;;;19.60;99.90;;;;;;5081073;28;20346;-72
2022/09/07 08:03:05;;;;;;;;;;;19.60;99.90;;;;;;5055789;28;19924;-73
2022/09/07 08:05:37;;;;;;;;;;;19.70;99.90;;;;;;5070241;28;19977;-72
2022/09/07 08:08:03;;;;;;;;;;;19.70;99.90;;;;;;5068910;28;19936;-73
2022/09/07 08:10:35;;;;;;;;;;;19.70;99.90;;;;;;5093443;28;19931;-72
2022/09/07 08:13:06;;;;;;;;;;;19.70;99.90;;;;;;5074395;28;19978;-72
2022/09/07 08:15:44;;;;;;;;;;;19.70;99.90;;;;;;5069398;28;19932;-72
2022/09/07 08:18:16;;;;;;;;;;;19.80;99.90;;;;;;5079131;28;20352;-72
2022/09/07 08:20:47;;;;;;;;;;;19.80;99.90;;;;;;5082950;28;19986;-72
2022/09/07 08:23:19;;;;;;;;;;;19.90;99.90;;;;;;5069568;28;20334;-72
2022/09/07 08:25:52;;;;;;;;;;;20.10;99.90;;;;;;5080590;28;19924;-72
2022/09/07 08:28:24;;;;;;;;;;;20.10;99.90;;;;;;5081999;28;19974;-72
2022/09/07 08:30:56;;;;;;;;;;;20.10;99.90;;;;;;5071589;28;19934;-72
2022/09/07 08:33:28;;;;;;;;;;;20.20;99.90;;;;;;5071339;28;20322;-72
2022/09/07 08:36:01;;;;;;;;;;;20.20;99.90;;;;;;5073512;28;19969;-72
2022/09/07 08:38:34;;;;;;;;;;;20.20;99.90;;;;;;5068184;28;20340;-72
2022/09/07 08:41:25;;;;;;;;;;;20.20;99.90;;;;;;5083183;28;19971;-72
2022/09/07 08:43:58;;;;;;;;;;;20.30;99.90;;;;;;5079409;28;19929;-72
2022/09/07 08:46:42;;;;;;;;;;;20.40;99.90;;;;;;5080504;28;19970;-74
2022/09/07 08:49:29;;;;;;;;;;;20.50;99.90;;;;;;5074995;28;20440;-72
2022/09/07 08:52:07;;;;;;;;;;;20.70;99.90;;;;;;5069783;28;19990;-72
2022/09/07 08:54:41;;;;;;;;;;;20.90;99.90;;;;;;5078754;28;19924;-73
2022/09/07 08:57:15;;;;;;;;;;;21.10;99.90;;;;;;5075319;28;20398;-72
2022/09/07 09:00:03;;;;;;;;;;;21.30;99.90;;;;;;5075000;28;20470;-72
2022/09/07 09:02:35;;;;;;;;;;;21.50;99.90;;;;;;5076310;28;19977;-71
2022/09/07 09:05:23;;;;;;;;;;;21.60;99.90;;;;;;5045321;28;19929;-72
2022/09/07 09:08:01;;;;;;;;;;;21.80;99.90;;;;;;5053587;28;20358;-71
2022/09/07 09:10:52;;;;;;;;;;;21.90;99.90;;;;;;5051195;28;19924;-72
2022/09/07 09:13:43;;;;;;;;;;;21.90;99.90;;;;;;5072575;28;19935;-72
2022/09/07 09:16:17;;;;;;;;;;;21.90;99.90;;;;;;5079767;28;19940;-73
2022/09/07 09:19:01;;;;;;;;;;;21.90;99.90;;;;;;5084367;28;19951;-72
2022/09/07 09:21:32;;;;;;;;;;;21.90;99.90;;;;;;5082054;28;19970;-72
2022/09/07 09:24:10;;;;;;;;;;;22.10;99.90;;;;;;5067239;28;19990;-72
2022/09/07 09:26:44;;;;;;;;;;;22.20;99.90;;;;;;5081195;28;19932;-72
2022/09/07 09:29:19;;;;;;;;;;;22.40;99.90;;;;;;5067050;28;19956;-73
2022/09/07 09:31:52;;;;;;;;;;;22.50;99.90;;;;;;5060140;28;20044;-72
2022/09/07 09:34:23;;;;;;;;;;;22.60;99.90;;;;;;5061656;28;19959;-73
2022/09/07 09:36:57;;;;;;;;;;;22.60;99.90;;;;;;5071276;28;20291;-72
2022/09/07 09:39:31;;;;;;;;;;;22.80;99.90;;;;;;5055158;28;19924;-72
2022/09/07 09:42:12;;;;;;;;;;;22.90;99.90;;;;;;5054669;28;19924;-72
2022/09/07 09:44:44;;;;;;;;;;;23.00;99.90;;;;;;5036009;28;20395;-72
2022/09/07 09:47:25;;;;;;;;;;;23.10;99.90;;;;;;5063510;28;19971;-72
2022/09/07 09:50:01;;;;;;;;;;;23.20;99.90;;;;;;5063281;28;19979;-73
2022/09/07 09:52:35;;;;;;;;;;;23.20;99.90;;;;;;5072446;28;19931;-72
2022/09/07 09:55:15;;;;;;;;;;;23.20;99.90;;;;;;5072373;28;19932;-72
2022/09/07 09:57:57;;;;;;;;;;;23.30;99.90;;;;;;5072826;28;19925;-72
2022/09/07 10:00:30;;;;;;;;;;;23.40;99.90;;;;;;5083237;28;19932;-72
2022/09/07 10:03:04;;;;;;;;;;;23.40;99.90;;;;;;5055762;28;19979;-73
2022/09/07 10:05:46;;;;;;;;;;;23.50;99.90;;;;;;5069357;28;19941;-72
2022/09/07 10:08:22;;;;;;;;;;;23.50;99.90;;;;;;5045181;28;19924;-72
2022/09/07 10:10:54;;;;;;;;;;;23.50;99.90;;;;;;5050803;28;19978;-72
2022/09/07 10:13:30;;;;;;;;;;;23.70;99.90;;;;;;5072428;28;19924;-72
2022/09/07 10:16:06;;;;;;;;;;;23.70;99.90;;;;;;5087924;28;20283;-72
2022/09/07 10:18:39;;;;;;;;;;;23.70;99.90;;;;;;5076308;28;19931;-72
2022/09/07 10:21:22;;;;;;;;;;;23.80;99.90;;;;;;5072240;28;19924;-72
2022/09/07 10:23:57;;;;;;;;;;;23.90;99.90;;;;;;5081080;28;19928;-72
2022/09/07 10:26:33;;;;;;;;;;;24.00;99.90;;;;;;5051819;28;19924;-72
2022/09/07 10:29:06;;;;;;;;;;;24.00;99.90;;;;;;5043479;28;19925;-72
2022/09/07 10:31:42;;;;;;;;;;;24.10;99.90;;;;;;5058600;28;19928;-73
2022/09/07 10:34:31;;;;;;;;;;;24.30;99.90;;;;;;5056613;28;20346;-73
2022/09/07 10:37:09;;;;;;;;;;;24.40;99.90;;;;;;5052828;28;19929;-71
2022/09/07 10:39:42;;;;;;;;;;;24.40;99.90;;;;;;5036640;28;19932;-71
2022/09/07 10:42:31;;;;;;;;;;;24.30;99.90;;;;;;5073512;28;19972;-72
2022/09/07 10:45:03;;;;;;;;;;;24.30;99.90;;;;;;5052669;28;19932;-72
2022/09/07 10:47:45;;;;;;;;;;;24.40;99.90;;;;;;5075019;28;19935;-72
2022/09/07 10:50:26;;;;;;;;;;;24.40;99.90;;;;;;5076146;28;20444;-73
2022/09/07 10:53:04;;;;;;;;;;;24.50;99.90;;;;;;5055758;28;19932;-74
2022/09/07 10:55:39;;;;;;;;;;;24.60;99.90;;;;;;5064455;28;20383;-72
2022/09/07 10:58:21;;;;;;;;;;;24.60;99.90;;;;;;5076420;28;19928;-72
2022/09/07 11:01:06;;;;;;;;;;;24.60;99.90;;;;;;5063014;28;20602;-72
2022/09/07 11:04:10;;;;;;;;;;;24.60;99.90;;;;;;5074007;28;19924;-72
2022/09/07 11:06:47;;;;;;;;;;;24.70;99.90;;;;;;5018302;28;19970;-72
2022/09/07 11:09:54;;;;;;;;;;;24.70;99.90;;;;;;5058875;28;19924;-73
2022/09/07 11:12:36;;;;;;;;;;;24.80;99.90;;;;;;5002370;28;19926;-72
2022/09/07 11:15:11;;;;;;;;;;;25.00;99.90;;;;;;5050404;28;19924;-72
2022/09/07 11:17:54;;;;;;;;;;;25.10;99.90;;;;;;5054563;28;19978;-72
2022/09/07 11:20:25;;;;;;;;;;;25.20;99.90;;;;;;5070732;28;19963;-72
2022/09/07 11:23:00;;;;;;;;;;;25.30;99.90;;;;;;5074129;28;19928;-72
2022/09/07 11:25:34;;;;;;;;;;;25.30;99.90;;;;;;5066904;28;19925;-73
2022/09/07 11:28:15;;;;;;;;;;;25.40;99.90;;;;;;5070408;28;19924;-72
2022/09/07 11:30:49;;;;;;;;;;;25.50;99.90;;;;;;5053867;28;19932;-72
2022/09/07 11:33:40;;;;;;;;;;;25.60;99.90;;;;;;5055358;28;20299;-72
2022/09/07 11:36:14;;;;;;;;;;;25.70;99.90;;;;;;5088732;28;19931;-72
2022/09/07 11:38:51;;;;;;;;;;;25.70;99.90;;;;;;5087674;28;20019;-72
2022/09/07 11:41:28;;;;;;;;;;;25.80;99.90;;;;;;5069165;28;19925;-71
2022/09/07 11:43:59;;;;;;;;;;;25.90;99.90;;;;;;5075135;28;19925;-72
2022/09/07 11:46:43;;;;;;;;;;;25.90;99.90;;;;;;5056913;28;19924;-71
2022/09/07 11:49:21;;;;;;;;;;;26.10;99.90;;;;;;5092117;28;19939;-73
2022/09/07 11:52:05;;;;;;;;;;;26.20;99.90;;;;;;5083434;28;19925;-73
2022/09/07 11:54:50;;;;;;;;;;;26.10;99.90;;;;;;5083950;28;19967;-72
2022/09/07 11:57:30;;;;;;;;;;;26.00;99.90;;;;;;5065886;28;19924;-72
2022/09/07 12:00:22;;;;;;;;;;;26.00;99.90;;;;;;5062992;28;19925;-72
2022/09/07 12:03:03;;;;;;;;;;;26.00;99.90;;;;;;5073558;28;20455;-72
2022/09/07 12:05:40;;;;;;;;;;;26.00;99.90;;;;;;5074406;28;19928;-72
2022/09/07 12:08:19;;;;;;;;;;;25.90;99.90;;;;;;5056773;28;20307;-72
2022/09/07 12:11:09;;;;;;;;;;;25.90;99.90;;;;;;5074456;28;19925;-73
2022/09/07 12:13:58;;;;;;;;;;;25.90;99.90;;;;;;5077200;28;20398;-72
2022/09/07 12:16:32;;;;;;;;;;;25.80;99.90;;;;;;5079456;28;19924;-72
2022/09/07 12:19:20;;;;;;;;;;;25.70;99.90;;;;;;5083607;28;19928;-72
2022/09/07 12:21:52;;;;;;;;;;;25.60;99.90;;;;;;5074147;28;20370;-72
2022/09/07 12:24:26;;;;;;;;;;;25.50;99.90;;;;;;5080868;28;19982;-72
2022/09/07 12:26:59;;;;;;;;;;;25.50;99.90;;;;;;5085546;28;19932;-73
2022/09/07 12:29:30;;;;;;;;;;;25.50;99.90;;;;;;5065764;28;19977;-72
2022/09/07 12:32:03;;;;;;;;;;;25.40;99.90;;;;;;5075469;28;20399;-72
2022/09/07 12:34:34;;;;;;;;;;;25.50;99.90;;;;;;5077489;28;19924;-72
2022/09/07 12:37:06;;;;;;;;;;;25.50;99.90;;;;;;5080908;28;20031;-72
2022/09/07 12:39:33;;;;;;;;;;;25.60;99.90;;;;;;5076552;28;20448;-72
2022/09/07 12:42:05;;;;;;;;;;;25.60;99.90;;;;;;5080770;28;19928;-72
2022/09/07 12:44:36;;;;;;;;;;;25.60;99.90;;;;;;5070781;28;20769;-72
2022/09/07 12:47:11;;;;;;;;;;;25.70;99.90;;;;;;5079316;28;19924;-73
2022/09/07 12:50:05;;;;;;;;;;;25.80;99.90;;;;;;5081395;28;20390;-72
2022/09/07 12:52:39;;;;;;;;;;;25.90;99.90;;;;;;5078837;28;19986;-72
2022/09/07 12:55:25;;;;;;;;;;;25.80;99.90;;;;;;5077380;28;20299;-73
2022/09/07 12:58:16;;;;;;;;;;;25.90;99.90;;;;;;5080385;28;19928;-73
2022/09/07 13:01:05;;;;;;;;;;;26.10;99.90;;;;;;5079180;28;20315;-72
2022/09/07 13:03:59;;;;;;;;;;;26.20;99.90;;;;;;5071160;28;19987;-72
2022/09/07 13:06:37;;;;;;;;;;;26.30;99.90;;;;;;5080047;28;19970;-72
2022/09/07 13:09:28;;;;;;;;;;;26.40;99.90;;;;;;5081659;28;19928;-72
2022/09/07 13:12:03;;;;;;;;;;;26.40;99.90;;;;;;5077690;28;20306;-72
2022/09/07 13:14:35;;;;;;;;;;;26.60;99.90;;;;;;5043742;28;19924;-73
2022/09/07 13:17:25;;;;;;;;;;;26.70;99.90;;;;;;5078373;28;19990;-72
2022/09/07 13:19:57;;;;;;;;;;;26.70;99.90;;;;;;5068061;28;19928;-73
2022/09/07 13:22:28;;;;;;;;;;;26.70;99.90;;;;;;5055310;28;19928;-72
2022/09/07 13:25:02;;;;;;;;;;;26.70;99.90;;;;;;5069192;28;19924;-73
2022/09/07 13:27:52;;;;;;;;;;;26.80;99.90;;;;;;5072612;28;19936;-72
2022/09/07 13:30:33;;;;;;;;;;;26.90;99.90;;;;;;5057475;28;19956;-72
2022/09/07 13:33:23;;;;;;;;;;;27.20;99.90;;;;;;5068619;28;19928;-72
2022/09/07 13:35:59;;;;;;;;;;;27.30;99.90;;;;;;5066361;28;20584;-73
2022/09/07 13:38:32;;;;;;;;;;;27.30;99.90;;;;;;5082055;28;19979;-72
2022/09/07 13:41:06;;;;;;;;;;;27.30;99.90;;;;;;5071213;28;19990;-72
2022/09/07 13:43:38;;;;;;;;;;;27.40;99.90;;;;;;5076775;28;19994;-72
2022/09/07 13:46:16;;;;;;;;;;;27.50;99.90;;;;;;5075116;28;19929;-72
2022/09/07 13:48:51;;;;;;;;;;;27.60;99.90;;;;;;5050842;28;20271;-73
2022/09/07 13:51:22;;;;;;;;;;;27.70;99.90;;;;;;5083969;28;19931;-72
2022/09/07 13:53:54;;;;;;;;;;;27.70;99.90;;;;;;5072414;28;19972;-72
2022/09/07 13:56:35;;;;;;;;;;;27.70;99.90;;;;;;5066300;28;19928;-73
2022/09/07 13:59:11;;;;;;;;;;;27.70;99.90;;;;;;5076957;28;19959;-73
2022/09/07 14:01:44;;;;;;;;;;;27.60;99.90;;;;;;5070967;28;19924;-73
2022/09/07 14:04:26;;;;;;;;;;;27.70;99.90;;;;;;5055178;28;19974;-73
2022/09/07 14:07:00;;;;;;;;;;;27.60;99.90;;;;;;5083293;28;19928;-73
2022/09/07 14:09:33;;;;;;;;;;;27.60;99.90;;;;;;5057392;28;19925;-73
2022/09/07 14:12:19;;;;;;;;;;;27.80;99.90;;;;;;5046377;28;19924;-72
2022/09/07 14:15:09;;;;;;;;;;;27.80;99.90;;;;;;5067176;28;20357;-73
2022/09/07 14:17:40;;;;;;;;;;;27.80;99.90;;;;;;5064710;28;19932;-72
2022/09/07 14:20:13;;;;;;;;;;;28.00;99.90;;;;;;5070308;28;19928;-72
2022/09/07 14:22:45;;;;;;;;;;;28.00;99.90;;;;;;5079912;28;19978;-72
2022/09/07 14:25:17;;;;;;;;;;;28.10;99.90;;;;;;5071631;28;19947;-72
2022/09/07 14:27:49;;;;;;;;;;;28.00;99.90;;;;;;5079488;28;19925;-73
2022/09/07 14:30:22;;;;;;;;;;;27.90;99.90;;;;;;5066332;28;19929;-72
2022/09/07 14:32:55;;;;;;;;;;;27.90;99.80;;;;;;5059815;28;19928;-73
2022/09/07 14:35:23;;;;;;;;;;;28.00;99.70;;;;;;5072206;28;19932;-72
2022/09/07 14:38:04;;;;;;;;;;;28.10;99.70;;;;;;5081010;28;19935;-73
2022/09/07 14:40:36;;;;;;;;;;;28.50;97.70;;;;;;5063586;28;19935;-73
2022/09/07 14:43:27;;;;;;;;;;;28.70;96.40;;;;;;5070929;28;20294;-72
2022/09/07 14:46:17;;;;;;;;;;;29.00;95.20;;;;;;5072292;28;19929;-72
2022/09/07 14:48:50;;;;;;;;;;;29.00;94.80;;;;;;5076002;28;19928;-72
2022/09/07 14:51:26;;;;;;;;;;;28.80;94.00;;;;;;5076855;28;19924;-72
2022/09/07 14:53:59;;;;;;;;;;;28.80;95.60;;;;;;5072848;28;19991;-72
2022/09/07 14:56:35;;;;;;;;;;;28.70;96.70;;;;;;5080772;28;19979;-73
2022/09/07 14:59:27;;;;;;;;;;;29.00;95.80;;;;;;5075085;28;19928;-73
2022/09/07 15:02:31;;;;;;;;;;;29.50;95.80;;;;;;5072406;28;20306;-72
2022/09/07 15:05:11;;;;;;;;;;;29.60;94.90;;;;;;5039794;28;19955;-72